This is the latest recevied weather packets stored in our database for station/object WX5RP. If no packets are shown the sender has not sent any weather packets the latest 10 day(s).
| Time | Temp. | Humidity | Pressure | Rain* | Wind** | Luminosity | Snow |
|---|---|---|---|---|---|---|---|
| 1787596816 | 25° C | 24% | 1021 hPa | 0 mm | - | 877 W/m² | - |
| 1787596216 | 24.44° C | 25% | 1020.7 hPa | 0 mm | - | 823 W/m² | - |
| 1787595616 | 23.89° C | 26% | 1020.5 hPa | 0 mm | - | 761 W/m² | - |
| 1787595016 | 23.33° C | 26% | 1020.5 hPa | 0 mm | - | 720 W/m² | - |
| 1787594416 | 22.22° C | 28% | 1020.8 hPa | 0 mm | - | 777 W/m² | - |
| 1787593816 | 22.78° C | 29% | 1020.9 hPa | 0 mm | - | 715 W/m² | - |
| 1787593216 | 22.78° C | 29% | 1021.8 hPa | 0 mm | - | 811 W/m² | - |
| 1787592616 | 21.67° C | 32% | 1021.5 hPa | 0 mm | - | 880 W/m² | - |
| 1787592016 | 20° C | 34% | 1022 hPa | 0 mm | - | 735 W/m² | - |
| 1787591417 | 19.44° C | 34% | 1021.3 hPa | 0 mm | - | 570 W/m² | - |
| 1787590816 | 18.89° C | 36% | 1020.7 hPa | 0 mm | - | 561 W/m² | - |
| 1787590216 | 17.78° C | 37% | 1021.6 hPa | 0 mm | - | 533 W/m² | - |
| 1787589616 | 17.78° C | 39% | 1021.9 hPa | 0 mm | - | 334 W/m² | - |
| 1787589016 | 16.67° C | 40% | 1021.9 hPa | 0 mm | - | 488 W/m² | - |
| 1787588416 | 16.11° C | 41% | 1022.2 hPa | 0 mm | - | 400 W/m² | - |
| 1787587816 | 15.56° C | 43% | 1021.1 hPa | 0 mm | - | 427 W/m² | - |
| 1787587216 | 15.56° C | 43% | 1020.8 hPa | 0 mm | - | 428 W/m² | - |
| 1787586615 | 15° C | 47% | 1021.5 hPa | 0 mm | - | 455 W/m² | - |
| 1787586015 | 14.44° C | 48% | 1021.8 hPa | 0 mm | - | 369 W/m² | - |
| 1787585415 | 13.33° C | 49% | 1021.5 hPa | 0 mm | - | 317 W/m² | - |
| 1787584815 | 12.78° C | 51% | 1022.1 hPa | 0 mm | - | 392 W/m² | - |
| 1787584215 | 11.11° C | 58% | 1021.8 hPa | 0 mm | - | 345 W/m² | - |
| 1787583616 | 9.44° C | 64% | 1021.2 hPa | 0 mm | - | 303 W/m² | - |
| 1787583015 | 8.33° C | 69% | 1021.5 hPa | 0 mm | - | 255 W/m² | - |
| 1787582416 | 7.22° C | 72% | 1022 hPa | 0 mm | - | 213 W/m² | - |
* Rain latest hour (hover to see other rain measurements)
** Current wind speed in m/s (hover to see current wind gust speed)